sensor_id;sensor_type;location;lat;lon;timestamp;temperature;humidity
30134;DHT22;16946;49.984;10.672;2023-04-15T00:00:06;4.60;99.90
30134;DHT22;16946;49.984;10.672;2023-04-15T00:00:37;4.60;99.90
30134;DHT22;16946;49.984;10.672;2023-04-15T00:01:08;4.60;99.90
30134;DHT22;16946;49.984;10.672;2023-04-15T00:01:39;4.60;99.90
30134;DHT22;16946;49.984;10.672;2023-04-15T00:02:14;4.50;99.90
30134;DHT22;16946;49.984;10.672;2023-04-15T00:02:45;4.50;99.90
30134;DHT22;16946;49.984;10.672;2023-04-15T00:03:15;4.50;99.90
30134;DHT22;16946;49.984;10.672;2023-04-15T00:03:47;4.60;99.90
30134;DHT22;16946;49.984;10.672;2023-04-15T00:04:17;4.70;99.90
30134;DHT22;16946;49.984;10.672;2023-04-15T00:04:48;4.70;99.90
30134;DHT22;16946;49.984;10.672;2023-04-15T00:05:18;4.60;99.90
30134;DHT22;16946;49.984;10.672;2023-04-15T00:05:49;4.60;99.90
30134;DHT22;16946;49.984;10.672;2023-04-15T00:06:20;4.60;99.90
30134;DHT22;16946;49.984;10.672;2023-04-15T00:06:52;4.60;99.90
30134;DHT22;16946;49.984;10.672;2023-04-15T00:07:22;4.60;99.90
30134;DHT22;16946;49.984;10.672;2023-04-15T00:07:53;4.60;99.90
30134;DHT22;16946;49.984;10.672;2023-04-15T00:08:24;4.60;99.90
30134;DHT22;16946;49.984;10.672;2023-04-15T00:08:54;4.60;99.90
30134;DHT22;16946;49.984;10.672;2023-04-15T00:09:25;4.60;99.90
30134;DHT22;16946;49.984;10.672;2023-04-15T00:09:56;4.60;99.90
30134;DHT22;16946;49.984;10.672;2023-04-15T00:10:27;4.60;99.90
30134;DHT22;16946;49.984;10.672;2023-04-15T00:10:58;4.60;99.90
30134;DHT22;16946;49.984;10.672;2023-04-15T00:11:32;4.50;99.90
30134;DHT22;16946;49.984;10.672;2023-04-15T00:12:03;4.50;99.90
30134;DHT22;16946;49.984;10.672;2023-04-15T00:12:33;4.50;99.90
30134;DHT22;16946;49.984;10.672;2023-04-15T00:13:04;4.50;99.90
30134;DHT22;16946;49.984;10.672;2023-04-15T00:13:35;4.50;99.90
30134;DHT22;16946;49.984;10.672;2023-04-15T00:14:05;4.50;99.90
30134;DHT22;16946;49.984;10.672;2023-04-15T00:14:36;4.50;99.90
30134;DHT22;16946;49.984;10.672;2023-04-15T00:15:08;4.50;99.90
30134;DHT22;16946;49.984;10.672;2023-04-15T00:15:39;4.50;99.90
30134;DHT22;16946;49.984;10.672;2023-04-15T00:16:10;4.50;99.90
30134;DHT22;16946;49.984;10.672;2023-04-15T00:16:40;4.40;99.90
30134;DHT22;16946;49.984;10.672;2023-04-15T00:17:11;4.40;99.90
30134;DHT22;16946;49.984;10.672;2023-04-15T00:17:42;4.40;99.90
30134;DHT22;16946;49.984;10.672;2023-04-15T00:18:13;4.40;99.90
30134;DHT22;16946;49.984;10.672;2023-04-15T00:18:43;4.40;99.90
30134;DHT22;16946;49.984;10.672;2023-04-15T00:19:14;4.30;99.90
30134;DHT22;16946;49.984;10.672;2023-04-15T00:19:44;4.30;99.90
30134;DHT22;16946;49.984;10.672;2023-04-15T00:20:15;4.30;99.90
30134;DHT22;16946;49.984;10.672;2023-04-15T00:20:45;4.30;99.90
30134;DHT22;16946;49.984;10.672;2023-04-15T00:21:16;4.30;99.90
30134;DHT22;16946;49.984;10.672;2023-04-15T00:21:46;4.20;99.90
30134;DHT22;16946;49.984;10.672;2023-04-15T00:22:17;4.20;99.90
30134;DHT22;16946;49.984;10.672;2023-04-15T00:22:48;4.20;99.90
30134;DHT22;16946;49.984;10.672;2023-04-15T00:23:18;4.20;99.90
30134;DHT22;16946;49.984;10.672;2023-04-15T00:23:49;4.20;99.90
30134;DHT22;16946;49.984;10.672;2023-04-15T00:24:23;4.20;99.90
30134;DHT22;16946;49.984;10.672;2023-04-15T00:24:53;4.20;99.90
30134;DHT22;16946;49.984;10.672;2023-04-15T00:25:24;4.30;99.90
30134;DHT22;16946;49.984;10.672;2023-04-15T00:25:54;4.20;99.90
30134;DHT22;16946;49.984;10.672;2023-04-15T00:26:25;4.20;99.90
30134;DHT22;16946;49.984;10.672;2023-04-15T00:26:56;4.20;99.90
30134;DHT22;16946;49.984;10.672;2023-04-15T00:27:27;4.20;99.90
30134;DHT22;16946;49.984;10.672;2023-04-15T00:27:58;4.20;99.90
30134;DHT22;16946;49.984;10.672;2023-04-15T00:28:28;4.20;99.90
30134;DHT22;16946;49.984;10.672;2023-04-15T00:29:00;4.30;99.90
30134;DHT22;16946;49.984;10.672;2023-04-15T00:29:31;4.30;99.90
30134;DHT22;16946;49.984;10.672;2023-04-15T00:30:01;4.30;99.90
30134;DHT22;16946;49.984;10.672;2023-04-15T00:30:33;4.30;99.90
30134;DHT22;16946;49.984;10.672;2023-04-15T00:31:04;4.30;99.90
30134;DHT22;16946;49.984;10.672;2023-04-15T00:31:34;4.30;99.90
30134;DHT22;16946;49.984;10.672;2023-04-15T00:32:06;4.20;99.90
30134;DHT22;16946;49.984;10.672;2023-04-15T00:32:36;4.20;99.90
30134;DHT22;16946;49.984;10.672;2023-04-15T00:33:07;4.20;99.90
30134;DHT22;16946;49.984;10.672;2023-04-15T00:33:37;4.20;99.90
30134;DHT22;16946;49.984;10.672;2023-04-15T00:34:08;4.20;99.90
30134;DHT22;16946;49.984;10.672;2023-04-15T00:34:39;4.20;99.90
30134;DHT22;16946;49.984;10.672;2023-04-15T00:35:10;4.20;99.90
30134;DHT22;16946;49.984;10.672;2023-04-15T00:35:41;4.20;99.90
30134;DHT22;16946;49.984;10.672;2023-04-15T00:36:11;4.10;99.90
30134;DHT22;16946;49.984;10.672;2023-04-15T00:36:42;4.20;99.90
30134;DHT22;16946;49.984;10.672;2023-04-15T00:37:13;4.20;99.90
30134;DHT22;16946;49.984;10.672;2023-04-15T00:37:43;4.20;99.90
30134;DHT22;16946;49.984;10.672;2023-04-15T00:38:14;4.20;99.90
30134;DHT22;16946;49.984;10.672;2023-04-15T00:38:44;4.20;99.90
30134;DHT22;16946;49.984;10.672;2023-04-15T00:39:15;4.20;99.90
30134;DHT22;16946;49.984;10.672;2023-04-15T00:39:46;4.20;99.90
30134;DHT22;16946;49.984;10.672;2023-04-15T00:40:18;4.20;99.90
30134;DHT22;16946;49.984;10.672;2023-04-15T00:40:50;4.20;99.90
30134;DHT22;16946;49.984;10.672;2023-04-15T00:41:20;4.20;99.90
30134;DHT22;16946;49.984;10.672;2023-04-15T00:41:52;4.30;99.90
30134;DHT22;16946;49.984;10.672;2023-04-15T00:42:24;4.30;99.90
30134;DHT22;16946;49.984;10.672;2023-04-15T00:42:54;4.30;99.90
30134;DHT22;16946;49.984;10.672;2023-04-15T00:43:25;4.30;99.90
30134;DHT22;16946;49.984;10.672;2023-04-15T00:43:56;4.30;99.90
30134;DHT22;16946;49.984;10.672;2023-04-15T00:44:26;4.30;99.90
30134;DHT22;16946;49.984;10.672;2023-04-15T00:44:57;4.30;99.90
30134;DHT22;16946;49.984;10.672;2023-04-15T00:45:28;4.30;99.90
30134;DHT22;16946;49.984;10.672;2023-04-15T00:45:59;4.30;99.90
30134;DHT22;16946;49.984;10.672;2023-04-15T00:46:30;4.30;99.90
30134;DHT22;16946;49.984;10.672;2023-04-15T00:47:03;4.30;99.90
30134;DHT22;16946;49.984;10.672;2023-04-15T00:47:35;4.30;99.90
30134;DHT22;16946;49.984;10.672;2023-04-15T00:48:07;4.20;99.90
30134;DHT22;16946;49.984;10.672;2023-04-15T00:48:39;4.20;99.90
30134;DHT22;16946;49.984;10.672;2023-04-15T00:49:10;4.20;99.90
30134;DHT22;16946;49.984;10.672;2023-04-15T00:49:41;4.20;99.90
30134;DHT22;16946;49.984;10.672;2023-04-15T00:50:11;4.20;99.90
30134;DHT22;16946;49.984;10.672;2023-04-15T00:50:42;4.20;99.90
30134;DHT22;16946;49.984;10.672;2023-04-15T00:51:13;4.10;99.90
30134;DHT22;16946;49.984;10.672;2023-04-15T00:51:44;4.10;99.90
30134;DHT22;16946;49.984;10.672;2023-04-15T00:52:14;4.10;99.90
30134;DHT22;16946;49.984;10.672;2023-04-15T00:52:45;4.10;99.90
30134;DHT22;16946;49.984;10.672;2023-04-15T00:53:16;4.00;99.90
30134;DHT22;16946;49.984;10.672;2023-04-15T00:53:46;4.00;99.90
30134;DHT22;16946;49.984;10.672;2023-04-15T00:54:17;4.00;99.90
30134;DHT22;16946;49.984;10.672;2023-04-15T00:54:47;4.00;99.90
30134;DHT22;16946;49.984;10.672;2023-04-15T00:55:18;4.00;99.90
30134;DHT22;16946;49.984;10.672;2023-04-15T00:55:49;4.10;99.90
30134;DHT22;16946;49.984;10.672;2023-04-15T00:56:20;4.10;99.90
30134;DHT22;16946;49.984;10.672;2023-04-15T00:56:53;4.10;99.90
30134;DHT22;16946;49.984;10.672;2023-04-15T00:57:25;4.10;99.90
30134;DHT22;16946;49.984;10.672;2023-04-15T00:57:56;4.10;99.90
30134;DHT22;16946;49.984;10.672;2023-04-15T00:58:27;4.10;99.90
30134;DHT22;16946;49.984;10.672;2023-04-15T00:58:58;4.10;99.90
30134;DHT22;16946;49.984;10.672;2023-04-15T00:59:29;4.00;99.90
30134;DHT22;16946;49.984;10.672;2023-04-15T01:00:01;4.00;99.90
30134;DHT22;16946;49.984;10.672;2023-04-15T01:00:32;4.00;99.90
30134;DHT22;16946;49.984;10.672;2023-04-15T01:01:03;4.00;99.90
30134;DHT22;16946;49.984;10.672;2023-04-15T01:01:35;4.00;99.90
30134;DHT22;16946;49.984;10.672;2023-04-15T01:02:06;4.00;99.90
30134;DHT22;16946;49.984;10.672;2023-04-15T01:02:37;4.00;99.90
30134;DHT22;16946;49.984;10.672;2023-04-15T01:03:08;4.00;99.90
30134;DHT22;16946;49.984;10.672;2023-04-15T01:03:39;4.00;99.90
30134;DHT22;16946;49.984;10.672;2023-04-15T01:04:09;4.00;99.90
30134;DHT22;16946;49.984;10.672;2023-04-15T01:04:41;4.00;99.90
30134;DHT22;16946;49.984;10.672;2023-04-15T01:05:12;4.00;99.90
30134;DHT22;16946;49.984;10.672;2023-04-15T01:05:43;4.00;99.90
30134;DHT22;16946;49.984;10.672;2023-04-15T01:06:13;4.00;99.90
30134;DHT22;16946;49.984;10.672;2023-04-15T01:06:44;4.00;99.90
30134;DHT22;16946;49.984;10.672;2023-04-15T01:07:14;4.00;99.90
30134;DHT22;16946;49.984;10.672;2023-04-15T01:07:46;4.00;99.90
30134;DHT22;16946;49.984;10.672;2023-04-15T01:08:17;4.00;99.90
30134;DHT22;16946;49.984;10.672;2023-04-15T01:08:48;4.00;99.90
30134;DHT22;16946;49.984;10.672;2023-04-15T01:09:18;4.00;99.90
30134;DHT22;16946;49.984;10.672;2023-04-15T01:09:49;4.10;99.90
30134;DHT22;16946;49.984;10.672;2023-04-15T01:10:20;4.10;99.90
30134;DHT22;16946;49.984;10.672;2023-04-15T01:10:50;4.10;99.90
30134;DHT22;16946;49.984;10.672;2023-04-15T01:11:22;4.10;99.90
30134;DHT22;16946;49.984;10.672;2023-04-15T01:11:53;4.10;99.90
30134;DHT22;16946;49.984;10.672;2023-04-15T01:12:25;4.10;99.90
30134;DHT22;16946;49.984;10.672;2023-04-15T01:12:56;4.10;99.90
30134;DHT22;16946;49.984;10.672;2023-04-15T01:13:27;4.10;99.90
30134;DHT22;16946;49.984;10.672;2023-04-15T01:13:58;4.10;99.90
30134;DHT22;16946;49.984;10.672;2023-04-15T01:14:29;4.10;99.90
30134;DHT22;16946;49.984;10.672;2023-04-15T01:15:00;4.00;99.90
30134;DHT22;16946;49.984;10.672;2023-04-15T01:15:31;4.10;99.90
30134;DHT22;16946;49.984;10.672;2023-04-15T01:16:02;4.10;99.90
30134;DHT22;16946;49.984;10.672;2023-04-15T01:16:32;4.10;99.90
30134;DHT22;16946;49.984;10.672;2023-04-15T01:17:03;4.10;99.90
30134;DHT22;16946;49.984;10.672;2023-04-15T01:17:34;4.10;99.90
30134;DHT22;16946;49.984;10.672;2023-04-15T01:18:05;4.20;99.90
30134;DHT22;16946;49.984;10.672;2023-04-15T01:18:36;4.20;99.90
30134;DHT22;16946;49.984;10.672;2023-04-15T01:19:10;4.20;99.90
30134;DHT22;16946;49.984;10.672;2023-04-15T01:19:40;4.20;99.90
30134;DHT22;16946;49.984;10.672;2023-04-15T01:20:11;4.30;99.90
30134;DHT22;16946;49.984;10.672;2023-04-15T01:20:42;4.30;99.90
30134;DHT22;16946;49.984;10.672;2023-04-15T01:21:12;4.20;99.90
30134;DHT22;16946;49.984;10.672;2023-04-15T01:21:44;4.30;99.90
30134;DHT22;16946;49.984;10.672;2023-04-15T01:22:14;4.30;99.90
30134;DHT22;16946;49.984;10.672;2023-04-15T01:22:45;4.20;99.90
30134;DHT22;16946;49.984;10.672;2023-04-15T01:23:16;4.30;99.90
30134;DHT22;16946;49.984;10.672;2023-04-15T01:23:47;4.20;99.90
30134;DHT22;16946;49.984;10.672;2023-04-15T01:24:18;4.20;99.90
30134;DHT22;16946;49.984;10.672;2023-04-15T01:24:57;4.20;99.90
30134;DHT22;16946;49.984;10.672;2023-04-15T01:25:32;4.20;99.90
30134;DHT22;16946;49.984;10.672;2023-04-15T01:26:04;4.20;99.90
30134;DHT22;16946;49.984;10.672;2023-04-15T01:26:37;4.20;99.90
30134;DHT22;16946;49.984;10.672;2023-04-15T01:27:07;4.20;99.90
30134;DHT22;16946;49.984;10.672;2023-04-15T01:27:39;4.20;99.90
30134;DHT22;16946;49.984;10.672;2023-04-15T01:28:10;4.30;99.90
30134;DHT22;16946;49.984;10.672;2023-04-15T01:28:41;4.30;99.90
30134;DHT22;16946;49.984;10.672;2023-04-15T01:29:12;4.30;99.90
30134;DHT22;16946;49.984;10.672;2023-04-15T01:29:42;4.40;99.90
30134;DHT22;16946;49.984;10.672;2023-04-15T01:30:13;4.40;99.90
30134;DHT22;16946;49.984;10.672;2023-04-15T01:30:43;4.40;99.90
30134;DHT22;16946;49.984;10.672;2023-04-15T01:31:14;4.40;99.90
30134;DHT22;16946;49.984;10.672;2023-04-15T01:31:51;4.40;99.90
30134;DHT22;16946;49.984;10.672;2023-04-15T01:32:23;4.50;99.90
30134;DHT22;16946;49.984;10.672;2023-04-15T01:32:53;4.50;99.90
30134;DHT22;16946;49.984;10.672;2023-04-15T01:33:24;4.50;99.90
30134;DHT22;16946;49.984;10.672;2023-04-15T01:33:54;4.50;99.90
30134;DHT22;16946;49.984;10.672;2023-04-15T01:34:25;4.50;99.90
30134;DHT22;16946;49.984;10.672;2023-04-15T01:34:56;4.40;99.90
30134;DHT22;16946;49.984;10.672;2023-04-15T01:35:27;4.40;99.90
30134;DHT22;16946;49.984;10.672;2023-04-15T01:35:57;4.40;99.90
30134;DHT22;16946;49.984;10.672;2023-04-15T01:36:28;4.40;99.90
30134;DHT22;16946;49.984;10.672;2023-04-15T01:36:59;4.30;99.90
30134;DHT22;16946;49.984;10.672;2023-04-15T01:37:30;4.30;99.90
30134;DHT22;16946;49.984;10.672;2023-04-15T01:38:05;4.30;99.90
30134;DHT22;16946;49.984;10.672;2023-04-15T01:38:37;4.30;99.90
30134;DHT22;16946;49.984;10.672;2023-04-15T01:39:07;4.30;99.90
30134;DHT22;16946;49.984;10.672;2023-04-15T01:39:38;4.30;99.90
30134;DHT22;16946;49.984;10.672;2023-04-15T01:40:09;4.30;99.90
30134;DHT22;16946;49.984;10.672;2023-04-15T01:40:39;4.30;99.90
30134;DHT22;16946;49.984;10.672;2023-04-15T01:41:10;4.40;99.90
30134;DHT22;16946;49.984;10.672;2023-04-15T01:41:40;4.40;99.90
30134;DHT22;16946;49.984;10.672;2023-04-15T01:42:11;4.40;99.90
30134;DHT22;16946;49.984;10.672;2023-04-15T01:42:42;4.40;99.90
30134;DHT22;16946;49.984;10.672;2023-04-15T01:43:12;4.40;99.90
30134;DHT22;16946;49.984;10.672;2023-04-15T01:43:43;4.40;99.90
30134;DHT22;16946;49.984;10.672;2023-04-15T01:44:13;4.40;99.90
30134;DHT22;16946;49.984;10.672;2023-04-15T01:44:44;4.30;99.90
30134;DHT22;16946;49.984;10.672;2023-04-15T01:45:14;4.30;99.90
30134;DHT22;16946;49.984;10.672;2023-04-15T01:45:46;4.30;99.90
30134;DHT22;16946;49.984;10.672;2023-04-15T01:46:17;4.30;99.90
30134;DHT22;16946;49.984;10.672;2023-04-15T01:46:47;4.30;99.90
30134;DHT22;16946;49.984;10.672;2023-04-15T01:47:18;4.30;99.90
30134;DHT22;16946;49.984;10.672;2023-04-15T01:47:49;4.30;99.90
30134;DHT22;16946;49.984;10.672;2023-04-15T01:48:19;4.30;99.90
30134;DHT22;16946;49.984;10.672;2023-04-15T01:48:50;4.30;99.90
30134;DHT22;16946;49.984;10.672;2023-04-15T01:49:21;4.20;99.90
30134;DHT22;16946;49.984;10.672;2023-04-15T01:49:51;4.30;99.90
30134;DHT22;16946;49.984;10.672;2023-04-15T01:50:22;4.20;99.90
30134;DHT22;16946;49.984;10.672;2023-04-15T01:50:54;4.20;99.90
30134;DHT22;16946;49.984;10.672;2023-04-15T01:51:26;4.30;99.90
30134;DHT22;16946;49.984;10.672;2023-04-15T01:51:57;4.30;99.90
30134;DHT22;16946;49.984;10.672;2023-04-15T01:52:28;4.30;99.90
30134;DHT22;16946;49.984;10.672;2023-04-15T01:52:58;4.30;99.90
30134;DHT22;16946;49.984;10.672;2023-04-15T01:53:29;4.30;99.90
30134;DHT22;16946;49.984;10.672;2023-04-15T01:53:59;4.30;99.90
30134;DHT22;16946;49.984;10.672;2023-04-15T01:54:30;4.30;99.90
30134;DHT22;16946;49.984;10.672;2023-04-15T01:55:00;4.30;99.90
30134;DHT22;16946;49.984;10.672;2023-04-15T01:55:31;4.30;99.90
30134;DHT22;16946;49.984;10.672;2023-04-15T01:56:02;4.30;99.90
30134;DHT22;16946;49.984;10.672;2023-04-15T01:56:32;4.20;99.90
30134;DHT22;16946;49.984;10.672;2023-04-15T01:57:03;4.20;99.90
30134;DHT22;16946;49.984;10.672;2023-04-15T01:57:34;4.10;99.90
30134;DHT22;16946;49.984;10.672;2023-04-15T01:58:05;4.10;99.90
30134;DHT22;16946;49.984;10.672;2023-04-15T01:58:36;4.10;99.90
30134;DHT22;16946;49.984;10.672;2023-04-15T01:59:06;4.10;99.90
30134;DHT22;16946;49.984;10.672;2023-04-15T01:59:37;4.10;99.90
30134;DHT22;16946;49.984;10.672;2023-04-15T02:00:08;4.10;99.90
30134;DHT22;16946;49.984;10.672;2023-04-15T02:00:39;4.20;99.90
30134;DHT22;16946;49.984;10.672;2023-04-15T02:01:10;4.20;99.90
30134;DHT22;16946;49.984;10.672;2023-04-15T02:01:41;4.20;99.90
30134;DHT22;16946;49.984;10.672;2023-04-15T02:02:11;4.20;99.90
30134;DHT22;16946;49.984;10.672;2023-04-15T02:02:42;4.20;99.90
30134;DHT22;16946;49.984;10.672;2023-04-15T02:03:12;4.20;99.90
30134;DHT22;16946;49.984;10.672;2023-04-15T02:03:43;4.20;99.90
30134;DHT22;16946;49.984;10.672;2023-04-15T02:04:13;4.20;99.90
30134;DHT22;16946;49.984;10.672;2023-04-15T02:04:46;4.20;99.90
30134;DHT22;16946;49.984;10.672;2023-04-15T02:05:17;4.10;99.90
30134;DHT22;16946;49.984;10.672;2023-04-15T02:05:47;4.20;99.90
30134;DHT22;16946;49.984;10.672;2023-04-15T02:06:18;4.20;99.90
30134;DHT22;16946;49.984;10.672;2023-04-15T02:06:48;4.20;99.90
30134;DHT22;16946;49.984;10.672;2023-04-15T02:07:19;4.20;99.90
30134;DHT22;16946;49.984;10.672;2023-04-15T02:07:50;4.20;99.90
30134;DHT22;16946;49.984;10.672;2023-04-15T02:08:20;4.20;99.90
30134;DHT22;16946;49.984;10.672;2023-04-15T02:08:51;4.20;99.90
30134;DHT22;16946;49.984;10.672;2023-04-15T02:09:22;4.10;99.90
30134;DHT22;16946;49.984;10.672;2023-04-15T02:09:53;4.10;99.90
30134;DHT22;16946;49.984;10.672;2023-04-15T02:10:23;4.10;99.90
30134;DHT22;16946;49.984;10.672;2023-04-15T02:10:54;4.10;99.90
30134;DHT22;16946;49.984;10.672;2023-04-15T02:11:24;4.10;99.90
30134;DHT22;16946;49.984;10.672;2023-04-15T02:11:55;4.10;99.90
30134;DHT22;16946;49.984;10.672;2023-04-15T02:12:25;4.10;99.90
30134;DHT22;16946;49.984;10.672;2023-04-15T02:12:56;4.10;99.90
30134;DHT22;16946;49.984;10.672;2023-04-15T02:13:27;4.10;99.90
30134;DHT22;16946;49.984;10.672;2023-04-15T02:13:57;4.10;99.90
30134;DHT22;16946;49.984;10.672;2023-04-15T02:14:28;4.10;99.90
30134;DHT22;16946;49.984;10.672;2023-04-15T02:14:58;4.10;99.90
30134;DHT22;16946;49.984;10.672;2023-04-15T02:15:29;4.10;99.90
30134;DHT22;16946;49.984;10.672;2023-04-15T02:15:59;4.10;99.90
30134;DHT22;16946;49.984;10.672;2023-04-15T02:16:31;4.10;99.90
30134;DHT22;16946;49.984;10.672;2023-04-15T02:17:02;4.20;99.90
30134;DHT22;16946;49.984;10.672;2023-04-15T02:17:36;4.20;99.90
30134;DHT22;16946;49.984;10.672;2023-04-15T02:18:07;4.30;99.90
30134;DHT22;16946;49.984;10.672;2023-04-15T02:18:37;4.30;99.90
30134;DHT22;16946;49.984;10.672;2023-04-15T02:19:08;4.30;99.90
30134;DHT22;16946;49.984;10.672;2023-04-15T02:19:38;4.40;99.90
30134;DHT22;16946;49.984;10.672;2023-04-15T02:20:10;4.30;99.90
30134;DHT22;16946;49.984;10.672;2023-04-15T02:20:41;4.40;99.90
30134;DHT22;16946;49.984;10.672;2023-04-15T02:21:13;4.50;99.90
30134;DHT22;16946;49.984;10.672;2023-04-15T02:21:43;4.50;99.90
30134;DHT22;16946;49.984;10.672;2023-04-15T02:22:14;4.60;99.90
30134;DHT22;16946;49.984;10.672;2023-04-15T02:22:47;4.60;99.90
30134;DHT22;16946;49.984;10.672;2023-04-15T02:23:18;4.60;99.90
30134;DHT22;16946;49.984;10.672;2023-04-15T02:23:49;4.60;99.90
30134;DHT22;16946;49.984;10.672;2023-04-15T02:24:20;4.60;99.90
30134;DHT22;16946;49.984;10.672;2023-04-15T02:24:51;4.60;99.90
30134;DHT22;16946;49.984;10.672;2023-04-15T02:25:22;4.60;99.90
30134;DHT22;16946;49.984;10.672;2023-04-15T02:25:52;4.60;99.90
30134;DHT22;16946;49.984;10.672;2023-04-15T02:26:23;4.60;99.90
30134;DHT22;16946;49.984;10.672;2023-04-15T02:26:55;4.50;99.90
30134;DHT22;16946;49.984;10.672;2023-04-15T02:27:25;4.50;99.90
30134;DHT22;16946;49.984;10.672;2023-04-15T02:27:57;4.50;99.90
30134;DHT22;16946;49.984;10.672;2023-04-15T02:28:27;4.60;99.90
30134;DHT22;16946;49.984;10.672;2023-04-15T02:28:58;4.50;99.90
30134;DHT22;16946;49.984;10.672;2023-04-15T02:29:30;4.50;99.90
30134;DHT22;16946;49.984;10.672;2023-04-15T02:30:01;4.50;99.90
30134;DHT22;16946;49.984;10.672;2023-04-15T02:30:33;4.50;99.90
30134;DHT22;16946;49.984;10.672;2023-04-15T02:31:06;4.50;99.90
30134;DHT22;16946;49.984;10.672;2023-04-15T02:31:37;4.50;99.90
30134;DHT22;16946;49.984;10.672;2023-04-15T02:32:09;4.40;99.90
30134;DHT22;16946;49.984;10.672;2023-04-15T02:32:41;4.40;99.90
30134;DHT22;16946;49.984;10.672;2023-04-15T02:33:14;4.40;99.90
30134;DHT22;16946;49.984;10.672;2023-04-15T02:33:44;4.40;99.90
30134;DHT22;16946;49.984;10.672;2023-04-15T02:34:16;4.40;99.90
30134;DHT22;16946;49.984;10.672;2023-04-15T02:34:46;4.40;99.90
30134;DHT22;16946;49.984;10.672;2023-04-15T02:35:17;4.30;99.90
30134;DHT22;16946;49.984;10.672;2023-04-15T02:35:49;4.40;99.90
30134;DHT22;16946;49.984;10.672;2023-04-15T02:36:20;4.40;99.90
30134;DHT22;16946;49.984;10.672;2023-04-15T02:36:50;4.30;99.90
30134;DHT22;16946;49.984;10.672;2023-04-15T02:37:24;4.40;99.90
30134;DHT22;16946;49.984;10.672;2023-04-15T02:37:57;4.50;99.90
30134;DHT22;16946;49.984;10.672;2023-04-15T02:38:27;4.50;99.90
30134;DHT22;16946;49.984;10.672;2023-04-15T02:38:58;4.50;99.90
30134;DHT22;16946;49.984;10.672;2023-04-15T02:39:29;4.60;99.90
30134;DHT22;16946;49.984;10.672;2023-04-15T02:39:59;4.60;99.90
30134;DHT22;16946;49.984;10.672;2023-04-15T02:40:30;4.60;99.90
30134;DHT22;16946;49.984;10.672;2023-04-15T02:41:01;4.60;99.90
30134;DHT22;16946;49.984;10.672;2023-04-15T02:41:32;4.50;99.90
30134;DHT22;16946;49.984;10.672;2023-04-15T02:42:03;4.50;99.90
30134;DHT22;16946;49.984;10.672;2023-04-15T02:42:35;4.50;99.90
30134;DHT22;16946;49.984;10.672;2023-04-15T02:43:05;4.60;99.90
30134;DHT22;16946;49.984;10.672;2023-04-15T02:43:36;4.60;99.90
30134;DHT22;16946;49.984;10.672;2023-04-15T02:44:09;4.70;99.90
30134;DHT22;16946;49.984;10.672;2023-04-15T02:44:42;4.70;99.90
30134;DHT22;16946;49.984;10.672;2023-04-15T02:45:12;4.70;99.90
30134;DHT22;16946;49.984;10.672;2023-04-15T02:45:44;4.70;99.90
30134;DHT22;16946;49.984;10.672;2023-04-15T02:46:15;4.70;99.90
30134;DHT22;16946;49.984;10.672;2023-04-15T02:46:46;4.70;99.90
30134;DHT22;16946;49.984;10.672;2023-04-15T02:47:20;4.70;99.90
30134;DHT22;16946;49.984;10.672;2023-04-15T02:47:50;4.70;99.90
30134;DHT22;16946;49.984;10.672;2023-04-15T02:48:21;4.70;99.90
30134;DHT22;16946;49.984;10.672;2023-04-15T02:48:51;4.70;99.90
30134;DHT22;16946;49.984;10.672;2023-04-15T02:49:23;4.70;99.90
30134;DHT22;16946;49.984;10.672;2023-04-15T02:49:54;4.60;99.90
30134;DHT22;16946;49.984;10.672;2023-04-15T02:50:25;4.50;99.90
30134;DHT22;16946;49.984;10.672;2023-04-15T02:51:16;4.50;99.90
30134;DHT22;16946;49.984;10.672;2023-04-15T02:51:47;4.50;99.90
30134;DHT22;16946;49.984;10.672;2023-04-15T02:52:19;4.50;99.90
30134;DHT22;16946;49.984;10.672;2023-04-15T02:52:50;4.40;99.90
30134;DHT22;16946;49.984;10.672;2023-04-15T02:53:21;4.40;99.90
30134;DHT22;16946;49.984;10.672;2023-04-15T02:53:51;4.40;99.90
30134;DHT22;16946;49.984;10.672;2023-04-15T02:54:23;4.40;99.90
30134;DHT22;16946;49.984;10.672;2023-04-15T02:54:53;4.40;99.90
30134;DHT22;16946;49.984;10.672;2023-04-15T02:55:30;4.40;99.90
30134;DHT22;16946;49.984;10.672;2023-04-15T02:56:00;4.40;99.90
30134;DHT22;16946;49.984;10.672;2023-04-15T02:56:31;4.30;99.90
30134;DHT22;16946;49.984;10.672;2023-04-15T02:57:01;4.30;99.90
30134;DHT22;16946;49.984;10.672;2023-04-15T02:57:32;4.30;99.90
30134;DHT22;16946;49.984;10.672;2023-04-15T02:58:04;4.30;99.90
30134;DHT22;16946;49.984;10.672;2023-04-15T02:58:35;4.30;99.90
30134;DHT22;16946;49.984;10.672;2023-04-15T02:59:05;4.30;99.90
30134;DHT22;16946;49.984;10.672;2023-04-15T02:59:36;4.20;99.90
30134;DHT22;16946;49.984;10.672;2023-04-15T03:00:07;4.20;99.90
30134;DHT22;16946;49.984;10.672;2023-04-15T03:00:39;4.20;99.90
30134;DHT22;16946;49.984;10.672;2023-04-15T03:01:09;4.20;99.90
30134;DHT22;16946;49.984;10.672;2023-04-15T03:01:40;4.20;99.90
30134;DHT22;16946;49.984;10.672;2023-04-15T03:02:10;4.20;99.90
30134;DHT22;16946;49.984;10.672;2023-04-15T03:02:41;4.30;99.90
30134;DHT22;16946;49.984;10.672;2023-04-15T03:03:12;4.20;99.90
30134;DHT22;16946;49.984;10.672;2023-04-15T03:03:44;4.20;99.90
30134;DHT22;16946;49.984;10.672;2023-04-15T03:04:14;4.20;99.90
30134;DHT22;16946;49.984;10.672;2023-04-15T03:04:45;4.20;99.90
30134;DHT22;16946;49.984;10.672;2023-04-15T03:05:15;4.20;99.90
30134;DHT22;16946;49.984;10.672;2023-04-15T03:05:46;4.20;99.90
30134;DHT22;16946;49.984;10.672;2023-04-15T03:06:16;4.20;99.90
30134;DHT22;16946;49.984;10.672;2023-04-15T03:06:47;4.20;99.90
30134;DHT22;16946;49.984;10.672;2023-04-15T03:07:18;4.20;99.90
30134;DHT22;16946;49.984;10.672;2023-04-15T03:07:49;4.20;99.90
30134;DHT22;16946;49.984;10.672;2023-04-15T03:08:20;4.20;99.90
30134;DHT22;16946;49.984;10.672;2023-04-15T03:08:51;4.20;99.90
30134;DHT22;16946;49.984;10.672;2023-04-15T03:09:21;4.20;99.90
30134;DHT22;16946;49.984;10.672;2023-04-15T03:09:52;4.20;99.90
30134;DHT22;16946;49.984;10.672;2023-04-15T03:10:22;4.20;99.90
30134;DHT22;16946;49.984;10.672;2023-04-15T03:10:53;4.20;99.90
30134;DHT22;16946;49.984;10.672;2023-04-15T03:11:23;4.20;99.90
30134;DHT22;16946;49.984;10.672;2023-04-15T03:11:54;4.20;99.90
30134;DHT22;16946;49.984;10.672;2023-04-15T03:12:26;4.20;99.90
30134;DHT22;16946;49.984;10.672;2023-04-15T03:12:57;4.30;99.90
30134;DHT22;16946;49.984;10.672;2023-04-15T03:13:27;4.20;99.90
30134;DHT22;16946;49.984;10.672;2023-04-15T03:13:58;4.20;99.90
30134;DHT22;16946;49.984;10.672;2023-04-15T03:14:28;4.20;99.90
30134;DHT22;16946;49.984;10.672;2023-04-15T03:14:59;4.20;99.90
30134;DHT22;16946;49.984;10.672;2023-04-15T03:15:31;4.20;99.90
30134;DHT22;16946;49.984;10.672;2023-04-15T03:16:02;4.20;99.90